sensor_id;sensor_type;location;lat;lon;timestamp;P1;durP1;ratioP1;P2;durP2;ratioP2
71104;SDS011;58760;48.716;8.962;2023-04-10T00:00:41;11.65;;;6.90;;
71104;SDS011;58760;48.716;8.962;2023-04-10T00:03:09;13.10;;;7.80;;
71104;SDS011;58760;48.716;8.962;2023-04-10T00:05:35;14.25;;;7.38;;
71104;SDS011;58760;48.716;8.962;2023-04-10T00:08:00;11.40;;;6.97;;
71104;SDS011;58760;48.716;8.962;2023-04-10T00:10:27;13.15;;;7.28;;
71104;SDS011;58760;48.716;8.962;2023-04-10T00:12:55;11.73;;;7.07;;
71104;SDS011;58760;48.716;8.962;2023-04-10T00:15:41;13.20;;;7.18;;
71104;SDS011;58760;48.716;8.962;2023-04-10T00:18:06;13.68;;;7.13;;
71104;SDS011;58760;48.716;8.962;2023-04-10T00:20:32;12.77;;;6.95;;
71104;SDS011;58760;48.716;8.962;2023-04-10T00:22:57;11.98;;;7.28;;
71104;SDS011;58760;48.716;8.962;2023-04-10T00:25:23;12.48;;;6.95;;
71104;SDS011;58760;48.716;8.962;2023-04-10T00:27:48;11.30;;;7.10;;
71104;SDS011;58760;48.716;8.962;2023-04-10T00:30:14;11.13;;;6.80;;
71104;SDS011;58760;48.716;8.962;2023-04-10T00:32:40;13.07;;;6.93;;
71104;SDS011;58760;48.716;8.962;2023-04-10T00:35:06;12.27;;;6.95;;
71104;SDS011;58760;48.716;8.962;2023-04-10T00:39:57;14.47;;;7.00;;
71104;SDS011;58760;48.716;8.962;2023-04-10T00:42:23;12.57;;;6.88;;
71104;SDS011;58760;48.716;8.962;2023-04-10T00:44:48;12.07;;;6.88;;
71104;SDS011;58760;48.716;8.962;2023-04-10T00:47:13;11.85;;;6.80;;
71104;SDS011;58760;48.716;8.962;2023-04-10T00:49:39;12.27;;;7.60;;
71104;SDS011;58760;48.716;8.962;2023-04-10T00:52:06;11.90;;;6.53;;
71104;SDS011;58760;48.716;8.962;2023-04-10T00:54:31;12.73;;;6.97;;
71104;SDS011;58760;48.716;8.962;2023-04-10T00:56:58;11.02;;;6.90;;
71104;SDS011;58760;48.716;8.962;2023-04-10T00:59:24;12.93;;;6.90;;
71104;SDS011;58760;48.716;8.962;2023-04-10T01:01:50;11.48;;;6.72;;
71104;SDS011;58760;48.716;8.962;2023-04-10T01:04:16;11.25;;;6.82;;
71104;SDS011;58760;48.716;8.962;2023-04-10T01:09:19;12.70;;;7.25;;
71104;SDS011;58760;48.716;8.962;2023-04-10T01:11:52;12.18;;;6.93;;
71104;SDS011;58760;48.716;8.962;2023-04-10T01:14:29;14.45;;;7.78;;
71104;SDS011;58760;48.716;8.962;2023-04-10T01:22:13;10.13;;;6.53;;
71104;SDS011;58760;48.716;8.962;2023-04-10T01:30:04;12.35;;;6.40;;
71104;SDS011;58760;48.716;8.962;2023-04-10T01:32:32;13.02;;;6.85;;
71104;SDS011;58760;48.716;8.962;2023-04-10T01:34:59;13.70;;;7.30;;
71104;SDS011;58760;48.716;8.962;2023-04-10T01:37:30;13.50;;;6.78;;
71104;SDS011;58760;48.716;8.962;2023-04-10T01:40:02;12.25;;;7.60;;
71104;SDS011;58760;48.716;8.962;2023-04-10T01:42:31;14.43;;;7.75;;
71104;SDS011;58760;48.716;8.962;2023-04-10T01:45:01;13.38;;;7.68;;
71104;SDS011;58760;48.716;8.962;2023-04-10T01:47:28;14.40;;;8.00;;
71104;SDS011;58760;48.716;8.962;2023-04-10T01:49:54;12.07;;;7.13;;
71104;SDS011;58760;48.716;8.962;2023-04-10T01:52:21;13.18;;;7.55;;
71104;SDS011;58760;48.716;8.962;2023-04-10T01:54:47;13.05;;;7.40;;
71104;SDS011;58760;48.716;8.962;2023-04-10T01:57:14;14.18;;;8.50;;
71104;SDS011;58760;48.716;8.962;2023-04-10T01:59:40;12.88;;;7.78;;
71104;SDS011;58760;48.716;8.962;2023-04-10T02:02:06;14.05;;;7.63;;
71104;SDS011;58760;48.716;8.962;2023-04-10T02:04:32;13.02;;;8.23;;
71104;SDS011;58760;48.716;8.962;2023-04-10T02:12:29;13.05;;;7.93;;
71104;SDS011;58760;48.716;8.962;2023-04-10T02:15:00;15.55;;;8.32;;
71104;SDS011;58760;48.716;8.962;2023-04-10T02:17:27;14.52;;;8.48;;
71104;SDS011;58760;48.716;8.962;2023-04-10T02:19:54;13.13;;;8.10;;
71104;SDS011;58760;48.716;8.962;2023-04-10T02:22:21;16.10;;;8.60;;
71104;SDS011;58760;48.716;8.962;2023-04-10T02:24:49;14.23;;;8.05;;
71104;SDS011;58760;48.716;8.962;2023-04-10T02:27:16;13.50;;;7.53;;
71104;SDS011;58760;48.716;8.962;2023-04-10T02:29:51;13.70;;;7.75;;
71104;SDS011;58760;48.716;8.962;2023-04-10T02:32:16;15.02;;;7.88;;
71104;SDS011;58760;48.716;8.962;2023-04-10T02:34:43;12.38;;;7.05;;
71104;SDS011;58760;48.716;8.962;2023-04-10T02:37:11;12.25;;;6.93;;
71104;SDS011;58760;48.716;8.962;2023-04-10T02:39:36;13.80;;;6.82;;
71104;SDS011;58760;48.716;8.962;2023-04-10T02:42:01;13.18;;;7.32;;
71104;SDS011;58760;48.716;8.962;2023-04-10T02:44:27;13.88;;;7.47;;
71104;SDS011;58760;48.716;8.962;2023-04-10T02:46:52;13.23;;;7.30;;
71104;SDS011;58760;48.716;8.962;2023-04-10T02:49:17;12.40;;;7.22;;
71104;SDS011;58760;48.716;8.962;2023-04-10T02:51:43;13.85;;;8.27;;
71104;SDS011;58760;48.716;8.962;2023-04-10T02:54:08;12.68;;;7.50;;
71104;SDS011;58760;48.716;8.962;2023-04-10T02:56:33;11.82;;;6.72;;
71104;SDS011;58760;48.716;8.962;2023-04-10T02:58:59;13.48;;;7.57;;
71104;SDS011;58760;48.716;8.962;2023-04-10T03:01:24;14.45;;;7.97;;
71104;SDS011;58760;48.716;8.962;2023-04-10T03:03:50;15.15;;;7.55;;
71104;SDS011;58760;48.716;8.962;2023-04-10T03:06:15;14.45;;;7.63;;
71104;SDS011;58760;48.716;8.962;2023-04-10T03:08:41;14.15;;;8.20;;
71104;SDS011;58760;48.716;8.962;2023-04-10T03:11:06;15.27;;;8.60;;
71104;SDS011;58760;48.716;8.962;2023-04-10T03:13:32;13.48;;;7.22;;
71104;SDS011;58760;48.716;8.962;2023-04-10T03:15:58;13.15;;;7.47;;
71104;SDS011;58760;48.716;8.962;2023-04-10T03:18:26;16.45;;;8.15;;
71104;SDS011;58760;48.716;8.962;2023-04-10T03:20:52;14.25;;;8.02;;
71104;SDS011;58760;48.716;8.962;2023-04-10T03:23:17;14.88;;;7.43;;
71104;SDS011;58760;48.716;8.962;2023-04-10T03:25:42;13.18;;;7.72;;
71104;SDS011;58760;48.716;8.962;2023-04-10T03:28:08;13.27;;;7.60;;
71104;SDS011;58760;48.716;8.962;2023-04-10T03:30:33;12.82;;;7.68;;
71104;SDS011;58760;48.716;8.962;2023-04-10T03:33:01;14.45;;;8.27;;
71104;SDS011;58760;48.716;8.962;2023-04-10T03:35:27;15.48;;;8.32;;
71104;SDS011;58760;48.716;8.962;2023-04-10T03:37:52;14.60;;;8.18;;
71104;SDS011;58760;48.716;8.962;2023-04-10T03:40:18;15.30;;;8.45;;
71104;SDS011;58760;48.716;8.962;2023-04-10T03:42:43;15.00;;;8.23;;
71104;SDS011;58760;48.716;8.962;2023-04-10T03:45:09;17.80;;;8.88;;
71104;SDS011;58760;48.716;8.962;2023-04-10T03:47:35;14.00;;;8.30;;
71104;SDS011;58760;48.716;8.962;2023-04-10T03:50:00;14.38;;;7.45;;
71104;SDS011;58760;48.716;8.962;2023-04-10T03:55:48;12.77;;;7.78;;
71104;SDS011;58760;48.716;8.962;2023-04-10T03:58:13;11.88;;;7.20;;
71104;SDS011;58760;48.716;8.962;2023-04-10T04:00:38;13.93;;;8.25;;
71104;SDS011;58760;48.716;8.962;2023-04-10T04:03:04;14.57;;;8.05;;
71104;SDS011;58760;48.716;8.962;2023-04-10T04:05:30;13.40;;;7.70;;
71104;SDS011;58760;48.716;8.962;2023-04-10T04:07:56;12.35;;;7.43;;
71104;SDS011;58760;48.716;8.962;2023-04-10T04:10:21;14.05;;;7.28;;
71104;SDS011;58760;48.716;8.962;2023-04-10T04:12:47;14.13;;;7.78;;
71104;SDS011;58760;48.716;8.962;2023-04-10T04:15:13;14.63;;;7.53;;
71104;SDS011;58760;48.716;8.962;2023-04-10T04:17:38;14.73;;;7.63;;
71104;SDS011;58760;48.716;8.962;2023-04-10T04:20:04;13.65;;;6.95;;
71104;SDS011;58760;48.716;8.962;2023-04-10T04:22:30;14.20;;;7.80;;
71104;SDS011;58760;48.716;8.962;2023-04-10T04:24:55;13.48;;;7.55;;
71104;SDS011;58760;48.716;8.962;2023-04-10T04:27:21;13.90;;;7.40;;
71104;SDS011;58760;48.716;8.962;2023-04-10T04:29:47;13.55;;;6.88;;
71104;SDS011;58760;48.716;8.962;2023-04-10T04:32:12;14.20;;;8.07;;
71104;SDS011;58760;48.716;8.962;2023-04-10T04:34:38;13.85;;;7.97;;
71104;SDS011;58760;48.716;8.962;2023-04-10T04:37:04;14.25;;;7.32;;
71104;SDS011;58760;48.716;8.962;2023-04-10T04:39:29;12.82;;;7.20;;
71104;SDS011;58760;48.716;8.962;2023-04-10T04:41:55;12.57;;;7.28;;
71104;SDS011;58760;48.716;8.962;2023-04-10T04:44:20;13.07;;;7.18;;
71104;SDS011;58760;48.716;8.962;2023-04-10T04:46:46;12.02;;;6.72;;
71104;SDS011;58760;48.716;8.962;2023-04-10T04:49:11;14.15;;;7.72;;
71104;SDS011;58760;48.716;8.962;2023-04-10T04:51:36;14.07;;;7.82;;
71104;SDS011;58760;48.716;8.962;2023-04-10T04:54:02;13.35;;;7.47;;
71104;SDS011;58760;48.716;8.962;2023-04-10T04:56:28;14.43;;;7.32;;
71104;SDS011;58760;48.716;8.962;2023-04-10T04:58:53;14.15;;;7.70;;
71104;SDS011;58760;48.716;8.962;2023-04-10T05:01:18;13.43;;;7.45;;
71104;SDS011;58760;48.716;8.962;2023-04-10T05:03:44;13.88;;;8.18;;
71104;SDS011;58760;48.716;8.962;2023-04-10T05:06:09;15.38;;;8.02;;
71104;SDS011;58760;48.716;8.962;2023-04-10T05:08:35;13.38;;;8.05;;
71104;SDS011;58760;48.716;8.962;2023-04-10T05:11:00;12.45;;;6.82;;
71104;SDS011;58760;48.716;8.962;2023-04-10T05:13:25;13.80;;;7.82;;
71104;SDS011;58760;48.716;8.962;2023-04-10T05:15:51;15.57;;;8.05;;
71104;SDS011;58760;48.716;8.962;2023-04-10T05:18:16;14.27;;;8.63;;
71104;SDS011;58760;48.716;8.962;2023-04-10T05:20:44;14.18;;;8.00;;
71104;SDS011;58760;48.716;8.962;2023-04-10T05:23:10;13.00;;;7.18;;
71104;SDS011;58760;48.716;8.962;2023-04-10T05:25:36;15.13;;;8.25;;
71104;SDS011;58760;48.716;8.962;2023-04-10T05:28:01;13.05;;;7.57;;
71104;SDS011;58760;48.716;8.962;2023-04-10T05:30:26;16.48;;;8.95;;
71104;SDS011;58760;48.716;8.962;2023-04-10T05:32:52;14.48;;;8.07;;
71104;SDS011;58760;48.716;8.962;2023-04-10T05:35:17;14.32;;;8.55;;
71104;SDS011;58760;48.716;8.962;2023-04-10T05:37:42;15.95;;;8.57;;
71104;SDS011;58760;48.716;8.962;2023-04-10T05:40:08;16.92;;;9.63;;
71104;SDS011;58760;48.716;8.962;2023-04-10T05:42:33;16.65;;;8.68;;
71104;SDS011;58760;48.716;8.962;2023-04-10T05:44:59;15.75;;;9.13;;
71104;SDS011;58760;48.716;8.962;2023-04-10T05:47:24;14.25;;;8.02;;
71104;SDS011;58760;48.716;8.962;2023-04-10T05:49:50;13.13;;;7.53;;
71104;SDS011;58760;48.716;8.962;2023-04-10T05:52:15;13.77;;;8.05;;
71104;SDS011;58760;48.716;8.962;2023-04-10T05:54:40;12.30;;;7.10;;
71104;SDS011;58760;48.716;8.962;2023-04-10T05:57:06;13.00;;;6.82;;
71104;SDS011;58760;48.716;8.962;2023-04-10T05:59:31;12.75;;;7.18;;
71104;SDS011;58760;48.716;8.962;2023-04-10T06:01:56;11.82;;;6.90;;
71104;SDS011;58760;48.716;8.962;2023-04-10T06:04:22;11.77;;;6.70;;
71104;SDS011;58760;48.716;8.962;2023-04-10T06:06:48;11.18;;;6.85;;
71104;SDS011;58760;48.716;8.962;2023-04-10T06:09:13;10.38;;;6.20;;
71104;SDS011;58760;48.716;8.962;2023-04-10T06:11:39;12.27;;;7.25;;
71104;SDS011;58760;48.716;8.962;2023-04-10T06:14:05;12.90;;;6.88;;
71104;SDS011;58760;48.716;8.962;2023-04-10T06:16:30;12.05;;;6.75;;
71104;SDS011;58760;48.716;8.962;2023-04-10T06:18:55;11.32;;;6.65;;
71104;SDS011;58760;48.716;8.962;2023-04-10T06:21:21;11.57;;;6.30;;
71104;SDS011;58760;48.716;8.962;2023-04-10T06:23:47;11.88;;;5.95;;
71104;SDS011;58760;48.716;8.962;2023-04-10T06:26:12;13.15;;;6.65;;
71104;SDS011;58760;48.716;8.962;2023-04-10T06:28:37;10.65;;;5.95;;
71104;SDS011;58760;48.716;8.962;2023-04-10T06:31:05;11.00;;;5.45;;
71104;SDS011;58760;48.716;8.962;2023-04-10T06:33:31;11.05;;;6.50;;
71104;SDS011;58760;48.716;8.962;2023-04-10T06:35:57;12.02;;;6.30;;
71104;SDS011;58760;48.716;8.962;2023-04-10T06:38:22;13.15;;;7.18;;
71104;SDS011;58760;48.716;8.962;2023-04-10T06:40:48;12.10;;;7.03;;
71104;SDS011;58760;48.716;8.962;2023-04-10T06:43:13;11.43;;;6.97;;
71104;SDS011;58760;48.716;8.962;2023-04-10T06:45:38;12.93;;;7.00;;
71104;SDS011;58760;48.716;8.962;2023-04-10T06:48:04;12.50;;;6.95;;
71104;SDS011;58760;48.716;8.962;2023-04-10T06:50:30;11.55;;;6.78;;
71104;SDS011;58760;48.716;8.962;2023-04-10T06:52:55;11.10;;;6.40;;
71104;SDS011;58760;48.716;8.962;2023-04-10T06:55:23;12.60;;;7.13;;
71104;SDS011;58760;48.716;8.962;2023-04-10T06:57:49;12.13;;;7.00;;
71104;SDS011;58760;48.716;8.962;2023-04-10T07:00:15;12.27;;;7.03;;
71104;SDS011;58760;48.716;8.962;2023-04-10T07:02:41;12.23;;;7.63;;
71104;SDS011;58760;48.716;8.962;2023-04-10T07:05:06;13.05;;;7.40;;
71104;SDS011;58760;48.716;8.962;2023-04-10T07:07:32;11.40;;;6.72;;
71104;SDS011;58760;48.716;8.962;2023-04-10T07:09:58;11.30;;;6.93;;
71104;SDS011;58760;48.716;8.962;2023-04-10T07:12:23;11.13;;;6.35;;
71104;SDS011;58760;48.716;8.962;2023-04-10T07:14:49;12.13;;;6.95;;
71104;SDS011;58760;48.716;8.962;2023-04-10T07:17:14;12.30;;;7.00;;
71104;SDS011;58760;48.716;8.962;2023-04-10T07:19:40;11.40;;;6.63;;
71104;SDS011;58760;48.716;8.962;2023-04-10T07:22:05;11.25;;;6.50;;
71104;SDS011;58760;48.716;8.962;2023-04-10T07:24:31;10.98;;;6.07;;
71104;SDS011;58760;48.716;8.962;2023-04-10T07:26:56;12.07;;;6.38;;
71104;SDS011;58760;48.716;8.962;2023-04-10T07:29:22;11.15;;;6.65;;
71104;SDS011;58760;48.716;8.962;2023-04-10T07:31:47;9.68;;;5.53;;
71104;SDS011;58760;48.716;8.962;2023-04-10T07:34:13;10.13;;;5.75;;
71104;SDS011;58760;48.716;8.962;2023-04-10T07:36:38;9.95;;;5.55;;
71104;SDS011;58760;48.716;8.962;2023-04-10T07:39:04;9.75;;;5.60;;
71104;SDS011;58760;48.716;8.962;2023-04-10T07:41:29;10.82;;;6.53;;
71104;SDS011;58760;48.716;8.962;2023-04-10T07:43:55;9.55;;;5.70;;
71104;SDS011;58760;48.716;8.962;2023-04-10T07:46:20;10.43;;;5.78;;
71104;SDS011;58760;48.716;8.962;2023-04-10T07:48:45;8.80;;;5.25;;
71104;SDS011;58760;48.716;8.962;2023-04-10T07:51:11;10.10;;;5.20;;
71104;SDS011;58760;48.716;8.962;2023-04-10T07:53:37;9.07;;;5.10;;
71104;SDS011;58760;48.716;8.962;2023-04-10T07:56:03;10.77;;;5.90;;
71104;SDS011;58760;48.716;8.962;2023-04-10T07:58:29;11.23;;;5.55;;
71104;SDS011;58760;48.716;8.962;2023-04-10T08:03:21;9.77;;;5.32;;
71104;SDS011;58760;48.716;8.962;2023-04-10T08:05:47;9.10;;;4.88;;
71104;SDS011;58760;48.716;8.962;2023-04-10T08:08:13;6.72;;;3.67;;
71104;SDS011;58760;48.716;8.962;2023-04-10T08:13:05;6.57;;;2.93;;
71104;SDS011;58760;48.716;8.962;2023-04-10T08:15:30;6.85;;;3.45;;
71104;SDS011;58760;48.716;8.962;2023-04-10T08:17:55;6.25;;;3.13;;
71104;SDS011;58760;48.716;8.962;2023-04-10T08:20:21;7.15;;;3.08;;
71104;SDS011;58760;48.716;8.962;2023-04-10T08:22:46;6.93;;;3.45;;
71104;SDS011;58760;48.716;8.962;2023-04-10T08:25:11;6.47;;;3.45;;
71104;SDS011;58760;48.716;8.962;2023-04-10T08:27:37;5.28;;;2.85;;
71104;SDS011;58760;48.716;8.962;2023-04-10T08:30:03;6.32;;;3.08;;
71104;SDS011;58760;48.716;8.962;2023-04-10T08:32:28;5.88;;;3.22;;
71104;SDS011;58760;48.716;8.962;2023-04-10T08:34:54;6.63;;;2.92;;
71104;SDS011;58760;48.716;8.962;2023-04-10T08:37:20;6.38;;;3.25;;
71104;SDS011;58760;48.716;8.962;2023-04-10T08:39:45;6.88;;;3.35;;
71104;SDS011;58760;48.716;8.962;2023-04-10T08:42:11;6.88;;;3.50;;
71104;SDS011;58760;48.716;8.962;2023-04-10T08:44:36;6.78;;;3.47;;
71104;SDS011;58760;48.716;8.962;2023-04-10T08:47:03;5.28;;;2.92;;
71104;SDS011;58760;48.716;8.962;2023-04-10T08:49:39;7.07;;;3.17;;
71104;SDS011;58760;48.716;8.962;2023-04-10T08:52:14;6.38;;;3.30;;
71104;SDS011;58760;48.716;8.962;2023-04-10T08:54:46;6.45;;;3.15;;
71104;SDS011;58760;48.716;8.962;2023-04-10T08:57:15;6.00;;;2.88;;
71104;SDS011;58760;48.716;8.962;2023-04-10T08:59:45;6.80;;;3.42;;
71104;SDS011;58760;48.716;8.962;2023-04-10T09:02:11;6.97;;;2.85;;
71104;SDS011;58760;48.716;8.962;2023-04-10T09:04:36;5.75;;;2.80;;
71104;SDS011;58760;48.716;8.962;2023-04-10T09:07:02;5.95;;;3.35;;
71104;SDS011;58760;48.716;8.962;2023-04-10T09:09:27;6.57;;;3.30;;
71104;SDS011;58760;48.716;8.962;2023-04-10T09:11:56;5.50;;;2.80;;
71104;SDS011;58760;48.716;8.962;2023-04-10T09:14:28;5.85;;;3.10;;
71104;SDS011;58760;48.716;8.962;2023-04-10T09:19:55;5.25;;;2.78;;
71104;SDS011;58760;48.716;8.962;2023-04-10T09:22:34;5.60;;;2.80;;
71104;SDS011;58760;48.716;8.962;2023-04-10T09:25:01;5.47;;;2.50;;
71104;SDS011;58760;48.716;8.962;2023-04-10T09:27:31;4.88;;;2.47;;
71104;SDS011;58760;48.716;8.962;2023-04-10T09:30:02;5.05;;;2.70;;
71104;SDS011;58760;48.716;8.962;2023-04-10T09:35:05;4.95;;;2.67;;
71104;SDS011;58760;48.716;8.962;2023-04-10T09:37:34;5.00;;;2.25;;
71104;SDS011;58760;48.716;8.962;2023-04-10T09:40:00;5.30;;;2.50;;
71104;SDS011;58760;48.716;8.962;2023-04-10T09:42:29;4.40;;;2.20;;
71104;SDS011;58760;48.716;8.962;2023-04-10T09:44:57;4.68;;;2.45;;
71104;SDS011;58760;48.716;8.962;2023-04-10T09:47:22;5.00;;;2.40;;
71104;SDS011;58760;48.716;8.962;2023-04-10T09:49:58;5.05;;;2.30;;
71104;SDS011;58760;48.716;8.962;2023-04-10T09:52:28;4.72;;;2.33;;
71104;SDS011;58760;48.716;8.962;2023-04-10T09:54:56;5.10;;;2.53;;
71104;SDS011;58760;48.716;8.962;2023-04-10T09:57:23;4.63;;;2.05;;
71104;SDS011;58760;48.716;8.962;2023-04-10T09:59:54;5.75;;;2.50;;
71104;SDS011;58760;48.716;8.962;2023-04-10T10:02:21;4.45;;;2.22;;
71104;SDS011;58760;48.716;8.962;2023-04-10T10:04:48;5.28;;;2.22;;
71104;SDS011;58760;48.716;8.962;2023-04-10T10:09:45;4.10;;;2.03;;
71104;SDS011;58760;48.716;8.962;2023-04-10T10:12:11;4.10;;;2.08;;
71104;SDS011;58760;48.716;8.962;2023-04-10T10:15:28;5.40;;;2.55;;
71104;SDS011;58760;48.716;8.962;2023-04-10T10:17:43;3.97;;;1.85;;
71104;SDS011;58760;48.716;8.962;2023-04-10T10:20:15;4.40;;;2.22;;
71104;SDS011;58760;48.716;8.962;2023-04-10T10:22:42;5.80;;;2.25;;
71104;SDS011;58760;48.716;8.962;2023-04-10T10:25:09;4.03;;;2.10;;
71104;SDS011;58760;48.716;8.962;2023-04-10T10:27:37;3.50;;;1.90;;
71104;SDS011;58760;48.716;8.962;2023-04-10T10:30:05;3.38;;;1.73;;
71104;SDS011;58760;48.716;8.962;2023-04-10T10:32:33;4.75;;;1.52;;
71104;SDS011;58760;48.716;8.962;2023-04-10T10:35:00;3.58;;;1.70;;
71104;SDS011;58760;48.716;8.962;2023-04-10T10:37:28;3.58;;;1.83;;
71104;SDS011;58760;48.716;8.962;2023-04-10T10:40:02;3.80;;;1.65;;
71104;SDS011;58760;48.716;8.962;2023-04-10T10:42:55;3.35;;;1.52;;
71104;SDS011;58760;48.716;8.962;2023-04-10T10:45:39;3.67;;;1.60;;
71104;SDS011;58760;48.716;8.962;2023-04-10T10:48:10;3.50;;;1.80;;
71104;SDS011;58760;48.716;8.962;2023-04-10T10:50:54;3.20;;;1.42;;
71104;SDS011;58760;48.716;8.962;2023-04-10T10:53:30;2.20;;;1.25;;
71104;SDS011;58760;48.716;8.962;2023-04-10T10:58:46;3.45;;;1.40;;
71104;SDS011;58760;48.716;8.962;2023-04-10T11:01:12;2.90;;;1.20;;
71104;SDS011;58760;48.716;8.962;2023-04-10T11:03:38;2.00;;;1.10;;
71104;SDS011;58760;48.716;8.962;2023-04-10T11:06:07;2.63;;;1.33;;
71104;SDS011;58760;48.716;8.962;2023-04-10T11:11:14;2.88;;;1.50;;
71104;SDS011;58760;48.716;8.962;2023-04-10T11:16:22;2.22;;;1.17;;
71104;SDS011;58760;48.716;8.962;2023-04-10T11:21:22;1.77;;;1.10;;
71104;SDS011;58760;48.716;8.962;2023-04-10T11:29:03;1.90;;;0.95;;
71104;SDS011;58760;48.716;8.962;2023-04-10T11:31:30;2.42;;;1.00;;
71104;SDS011;58760;48.716;8.962;2023-04-10T11:36:26;1.83;;;0.98;;
71104;SDS011;58760;48.716;8.962;2023-04-10T11:38:52;2.78;;;1.10;;
71104;SDS011;58760;48.716;8.962;2023-04-10T11:41:20;1.40;;;0.90;;
71104;SDS011;58760;48.716;8.962;2023-04-10T11:43:45;2.00;;;1.00;;
71104;SDS011;58760;48.716;8.962;2023-04-10T11:46:16;1.02;;;0.80;;
71104;SDS011;58760;48.716;8.962;2023-04-10T11:48:41;1.85;;;0.80;;
71104;SDS011;58760;48.716;8.962;2023-04-10T11:51:10;1.27;;;0.82;;
71104;SDS011;58760;48.716;8.962;2023-04-10T11:53:37;1.83;;;0.90;;
71104;SDS011;58760;48.716;8.962;2023-04-10T11:56:03;1.25;;;0.88;;
71104;SDS011;58760;48.716;8.962;2023-04-10T11:58:31;1.77;;;0.93;;
71104;SDS011;58760;48.716;8.962;2023-04-10T12:00:57;1.70;;;0.90;;
71104;SDS011;58760;48.716;8.962;2023-04-10T12:03:34;0.73;;;0.60;;
71104;SDS011;58760;48.716;8.962;2023-04-10T12:06:11;13.85;;;8.07;;
71104;SDS011;58760;48.716;8.962;2023-04-10T12:08:39;1.80;;;1.10;;
71104;SDS011;58760;48.716;8.962;2023-04-10T12:11:16;1.92;;;1.08;;
71104;SDS011;58760;48.716;8.962;2023-04-10T12:13:42;3.15;;;1.02;;
71104;SDS011;58760;48.716;8.962;2023-04-10T12:18:33;1.30;;;1.00;;
71104;SDS011;58760;48.716;8.962;2023-04-10T12:23:26;2.05;;;1.00;;
71104;SDS011;58760;48.716;8.962;2023-04-10T12:25:53;1.73;;;1.05;;
71104;SDS011;58760;48.716;8.962;2023-04-10T12:28:31;2.00;;;0.90;;
71104;SDS011;58760;48.716;8.962;2023-04-10T12:33:23;1.02;;;0.60;;
71104;SDS011;58760;48.716;8.962;2023-04-10T12:35:49;1.25;;;0.80;;
71104;SDS011;58760;48.716;8.962;2023-04-10T12:38:33;1.50;;;0.85;;
71104;SDS011;58760;48.716;8.962;2023-04-10T12:40:59;1.50;;;0.90;;
71104;SDS011;58760;48.716;8.962;2023-04-10T12:43:36;2.15;;;0.70;;
71104;SDS011;58760;48.716;8.962;2023-04-10T12:46:06;1.88;;;1.00;;
71104;SDS011;58760;48.716;8.962;2023-04-10T12:48:33;1.73;;;1.00;;
71104;SDS011;58760;48.716;8.962;2023-04-10T12:53:25;2.03;;;1.00;;
71104;SDS011;58760;48.716;8.962;2023-04-10T12:55:55;1.05;;;0.80;;
71104;SDS011;58760;48.716;8.962;2023-04-10T12:58:28;1.65;;;0.80;;
71104;SDS011;58760;48.716;8.962;2023-04-10T13:00:55;1.42;;;0.80;;
71104;SDS011;58760;48.716;8.962;2023-04-10T13:03:22;1.80;;;0.80;;
71104;SDS011;58760;48.716;8.962;2023-04-10T13:08:13;1.30;;;0.90;;
71104;SDS011;58760;48.716;8.962;2023-04-10T13:13:06;1.70;;;0.77;;
71104;SDS011;58760;48.716;8.962;2023-04-10T13:17:58;0.88;;;0.75;;
71104;SDS011;58760;48.716;8.962;2023-04-10T13:22:50;1.08;;;0.70;;
71104;SDS011;58760;48.716;8.962;2023-04-10T13:25:15;1.67;;;0.77;;
71104;SDS011;58760;48.716;8.962;2023-04-10T13:30:06;1.00;;;0.80;;
71104;SDS011;58760;48.716;8.962;2023-04-10T13:32:32;0.80;;;0.68;;
71104;SDS011;58760;48.716;8.962;2023-04-10T13:34:57;1.13;;;0.80;;
71104;SDS011;58760;48.716;8.962;2023-04-10T13:37:22;3.05;;;0.90;;
71104;SDS011;58760;48.716;8.962;2023-04-10T13:39:48;1.42;;;0.70;;
71104;SDS011;58760;48.716;8.962;2023-04-10T13:42:13;0.90;;;0.75;;
71104;SDS011;58760;48.716;8.962;2023-04-10T13:44:39;0.73;;;0.70;;
71104;SDS011;58760;48.716;8.962;2023-04-10T13:49:30;0.88;;;0.70;;
71104;SDS011;58760;48.716;8.962;2023-04-10T13:54:21;1.38;;;0.75;;
71104;SDS011;58760;48.716;8.962;2023-04-10T13:59:12;1.55;;;0.80;;
71104;SDS011;58760;48.716;8.962;2023-04-10T14:04:03;2.50;;;0.80;;
71104;SDS011;58760;48.716;8.962;2023-04-10T14:08:55;0.75;;;0.60;;
71104;SDS011;58760;48.716;8.962;2023-04-10T14:11:20;1.40;;;0.80;;
71104;SDS011;58760;48.716;8.962;2023-04-10T14:13:47;0.82;;;0.68;;
71104;SDS011;58760;48.716;8.962;2023-04-10T14:16:12;0.75;;;0.60;;
71104;SDS011;58760;48.716;8.962;2023-04-10T14:21:03;1.10;;;0.80;;
71104;SDS011;58760;48.716;8.962;2023-04-10T14:25:54;0.82;;;0.60;;
71104;SDS011;58760;48.716;8.962;2023-04-10T14:28:19;0.93;;;0.70;;
71104;SDS011;58760;48.716;8.962;2023-04-10T14:33:12;1.05;;;0.70;;
71104;SDS011;58760;48.716;8.962;2023-04-10T14:35:37;0.93;;;0.68;;
71104;SDS011;58760;48.716;8.962;2023-04-10T14:38:03;1.50;;;0.68;;
71104;SDS011;58760;48.716;8.962;2023-04-10T14:40:28;0.70;;;0.68;;
71104;SDS011;58760;48.716;8.962;2023-04-10T14:42:54;0.77;;;0.77;;
71104;SDS011;58760;48.716;8.962;2023-04-10T14:45:19;1.92;;;0.88;;
71104;SDS011;58760;48.716;8.962;2023-04-10T14:47:45;0.80;;;0.70;;
71104;SDS011;58760;48.716;8.962;2023-04-10T14:50:11;0.70;;;0.70;;
71104;SDS011;58760;48.716;8.962;2023-04-10T14:52:37;1.25;;;0.70;;
71104;SDS011;58760;48.716;8.962;2023-04-10T14:55:02;1.48;;;0.70;;
71104;SDS011;58760;48.716;8.962;2023-04-10T14:57:28;0.95;;;0.70;;
71104;SDS011;58760;48.716;8.962;2023-04-10T14:59:53;1.42;;;0.90;;
71104;SDS011;58760;48.716;8.962;2023-04-10T15:02:19;1.00;;;0.75;;
71104;SDS011;58760;48.716;8.962;2023-04-10T15:04:45;6.03;;;0.85;;
71104;SDS011;58760;48.716;8.962;2023-04-10T15:07:11;1.75;;;0.82;;
71104;SDS011;58760;48.716;8.962;2023-04-10T15:09:37;1.05;;;0.77;;
71104;SDS011;58760;48.716;8.962;2023-04-10T15:12:03;1.40;;;0.73;;
71104;SDS011;58760;48.716;8.962;2023-04-10T15:14:34;1.08;;;0.85;;
71104;SDS011;58760;48.716;8.962;2023-04-10T15:16:59;1.58;;;0.90;;
71104;SDS011;58760;48.716;8.962;2023-04-10T15:19:25;1.58;;;0.82;;
71104;SDS011;58760;48.716;8.962;2023-04-10T15:21:50;1.13;;;0.90;;
71104;SDS011;58760;48.716;8.962;2023-04-10T15:26:41;1.20;;;0.70;;
71104;SDS011;58760;48.716;8.962;2023-04-10T15:29:07;0.90;;;0.80;;
71104;SDS011;58760;48.716;8.962;2023-04-10T15:33:58;0.85;;;0.80;;
71104;SDS011;58760;48.716;8.962;2023-04-10T15:38:49;1.65;;;0.75;;
71104;SDS011;58760;48.716;8.962;2023-04-10T15:43:40;2.08;;;0.90;;
71104;SDS011;58760;48.716;8.962;2023-04-10T15:46:06;1.40;;;0.80;;
71104;SDS011;58760;48.716;8.962;2023-04-10T15:48:32;1.30;;;0.77;;
71104;SDS011;58760;48.716;8.962;2023-04-10T15:50:58;1.30;;;0.80;;
71104;SDS011;58760;48.716;8.962;2023-04-10T15:53:27;1.92;;;0.80;;
71104;SDS011;58760;48.716;8.962;2023-04-10T15:55:52;2.03;;;0.80;;
71104;SDS011;58760;48.716;8.962;2023-04-10T15:58:18;1.33;;;0.80;;
71104;SDS011;58760;48.716;8.962;2023-04-10T16:00:43;1.63;;;0.80;;
71104;SDS011;58760;48.716;8.962;2023-04-10T16:03:08;1.27;;;0.80;;
71104;SDS011;58760;48.716;8.962;2023-04-10T16:05:34;2.97;;;1.20;;
71104;SDS011;58760;48.716;8.962;2023-04-10T16:08:01;1.60;;;0.88;;
71104;SDS011;58760;48.716;8.962;2023-04-10T16:10:26;1.48;;;0.70;;
71104;SDS011;58760;48.716;8.962;2023-04-10T16:12:53;1.65;;;0.70;;
71104;SDS011;58760;48.716;8.962;2023-04-10T16:15:20;1.17;;;0.70;;
71104;SDS011;58760;48.716;8.962;2023-04-10T16:17:46;1.77;;;0.90;;
71104;SDS011;58760;48.716;8.962;2023-04-10T16:20:11;1.70;;;0.80;;
71104;SDS011;58760;48.716;8.962;2023-04-10T16:22:37;2.13;;;1.08;;
71104;SDS011;58760;48.716;8.962;2023-04-10T16:25:03;1.52;;;0.90;;